Time;durP1;ratioP1;P1;durP2;ratioP2;P2;SDS_P1;SDS_P2;PMS_P1;PMS_P2;Temp;Humidity;BMP_temperature;BMP_pressure;BME280_temperature;BME280_humidity;BME280_pressure;Samples;Min_cycle;Max_cycle;Signal;HPM_P1;HPM_P2
2022/05/23 00:02:09;;;;;;;8.03;4.30;;;17.30;99.90;;;;;;4999604;28;20471;-82
2022/05/23 00:04:36;;;;;;;8.00;4.00;;;17.30;99.90;;;;;;4998798;28;20495;-83
2022/05/23 00:07:04;;;;;;;11.10;5.20;;;17.30;99.90;;;;;;4997151;28;20457;-84
2022/05/23 00:09:30;;;;;;;5.90;3.97;;;17.30;99.90;;;;;;5000011;28;20455;-82
2022/05/23 00:11:58;;;;;;;8.50;4.10;;;17.40;99.90;;;;;;4999679;28;20551;-83
2022/05/23 00:14:25;;;;;;;5.77;4.33;;;17.40;99.90;;;;;;4999842;28;20465;-84
2022/05/23 00:16:54;;;;;;;6.33;4.00;;;17.40;99.90;;;;;;5001605;28;20470;-82
2022/05/23 00:19:25;;;;;;;6.10;4.13;;;17.30;99.90;;;;;;5000361;28;20461;-83
2022/05/23 00:21:54;;;;;;;7.13;4.13;;;17.30;99.90;;;;;;5000148;28;20521;-84
2022/05/23 00:24:21;;;;;;;7.10;4.17;;;17.30;99.90;;;;;;5001042;28;20446;-83
2022/05/23 00:26:53;;;;;;;6.83;4.00;;;17.30;99.90;;;;;;5000376;28;20524;-83
2022/05/23 00:29:20;;;;;;;7.13;3.97;;;17.30;99.90;;;;;;4985561;28;20542;-84
2022/05/23 00:37:22;;;;;;;5.07;4.03;;;17.30;99.90;;;;;;4972754;28;20496;-84
2022/05/23 00:39:49;;;;;;;5.50;3.67;;;17.20;99.90;;;;;;4998693;28;20462;-83
2022/05/23 00:45:04;;;;;;;7.57;4.10;;;17.10;99.90;;;;;;4997169;28;20496;-84
2022/05/23 00:47:33;;;;;;;6.90;4.50;;;17.10;99.90;;;;;;4997606;28;20569;-84
2022/05/23 00:50:01;;;;;;;8.80;4.80;;;17.20;99.90;;;;;;4997496;28;20482;-83
2022/05/23 00:52:32;;;;;;;8.20;4.37;;;17.20;99.90;;;;;;4996450;28;20552;-82
2022/05/23 00:55:02;;;;;;;11.13;5.33;;;17.20;99.90;;;;;;4995741;28;20960;-84
2022/05/23 00:57:33;;;;;;;5.33;3.97;;;17.30;99.90;;;;;;4986605;28;20541;-83
2022/05/23 01:00:02;;;;;;;6.67;3.80;;;17.30;99.90;;;;;;4997365;28;20459;-84
2022/05/23 01:02:31;;;;;;;6.40;4.20;;;17.20;99.90;;;;;;4995813;28;20501;-83
2022/05/23 01:04:57;;;;;;;8.43;4.37;;;17.20;99.90;;;;;;4997156;28;20469;-84
2022/05/23 01:07:26;;;;;;;8.33;4.53;;;17.20;99.90;;;;;;4996078;28;20573;-84
2022/05/23 01:09:53;;;;;;;6.80;4.00;;;17.20;99.90;;;;;;4995227;28;20454;-83
2022/05/23 01:12:20;;;;;;;9.20;5.03;;;17.20;99.90;;;;;;4994249;28;20557;-83
2022/05/23 01:14:49;;;;;;;7.03;4.97;;;17.20;99.90;;;;;;4996516;28;20541;-84
2022/05/23 01:17:16;;;;;;;5.90;4.50;;;17.20;99.90;;;;;;4996490;28;20561;-83
2022/05/23 01:19:43;;;;;;;11.33;4.70;;;17.10;99.90;;;;;;4996811;28;20897;-83
2022/05/23 01:22:20;;;;;;;5.87;4.37;;;17.10;99.90;;;;;;5008897;22;20900;-81
2022/05/23 01:25:01;;;;;;;9.63;5.00;;;17.10;99.90;;;;;;5014161;28;20440;-80
2022/05/23 01:27:31;;;;;;;8.97;4.10;;;17.20;99.90;;;;;;4996767;28;20438;-81
2022/05/23 01:29:58;;;;;;;5.40;3.80;;;17.20;99.90;;;;;;4998882;28;20461;-80
2022/05/23 01:32:25;;;;;;;6.23;4.03;;;17.20;99.90;;;;;;5014403;28;20477;-80
2022/05/23 01:34:52;;;;;;;7.80;4.10;;;17.20;99.90;;;;;;5016134;28;20442;-80
2022/05/23 01:37:19;;;;;;;7.03;4.37;;;17.20;99.90;;;;;;5011157;28;20461;-79
2022/05/23 01:39:45;;;;;;;7.93;3.83;;;17.20;99.90;;;;;;5015733;28;20547;-79
2022/05/23 01:42:12;;;;;;;6.60;3.70;;;17.20;99.90;;;;;;5012971;28;20483;-80
2022/05/23 01:44:41;;;;;;;9.13;4.80;;;17.10;99.90;;;;;;5016054;28;20462;-79
2022/05/23 01:47:10;;;;;;;7.97;4.90;;;17.10;99.90;;;;;;5014644;28;20460;-79
2022/05/23 01:49:37;;;;;;;6.17;4.10;;;17.10;99.90;;;;;;5015734;28;20484;-80
2022/05/23 01:52:04;;;;;;;7.57;4.37;;;17.10;99.90;;;;;;5014515;28;20463;-79
2022/05/23 01:54:31;;;;;;;7.90;4.40;;;17.10;99.90;;;;;;5015314;28;20463;-79
2022/05/23 01:56:58;;;;;;;8.10;5.20;;;17.10;99.90;;;;;;5013735;28;20537;-79
2022/05/23 02:02:10;;;;;;;6.50;4.30;;;17.10;99.90;;;;;;5014667;28;20458;-79
2022/05/23 02:04:37;;;;;;;6.63;4.37;;;17.10;99.90;;;;;;5015246;28;20460;-79
2022/05/23 02:07:05;;;;;;;10.20;4.43;;;17.10;99.90;;;;;;5016226;28;20453;-80
2022/05/23 02:09:32;;;;;;;6.13;4.93;;;17.10;99.90;;;;;;5015466;28;20480;-80
2022/05/23 02:12:00;;;;;;;5.97;3.80;;;17.10;99.90;;;;;;5015729;28;20452;-81
2022/05/23 02:14:26;;;;;;;8.07;5.00;;;17.10;99.90;;;;;;5015648;28;20479;-80
2022/05/23 02:16:53;;;;;;;6.10;4.87;;;17.10;99.90;;;;;;5013899;28;20457;-79
2022/05/23 02:19:21;;;;;;;6.13;3.80;;;17.10;99.90;;;;;;5014126;28;20455;-79
2022/05/23 02:21:48;;;;;;;5.33;4.03;;;17.10;99.90;;;;;;5014374;28;20462;-79
2022/05/23 02:24:15;;;;;;;7.33;4.10;;;17.00;99.90;;;;;;5012938;28;20474;-80
2022/05/23 02:26:42;;;;;;;6.03;3.73;;;17.00;99.90;;;;;;5013923;28;20442;-79
2022/05/23 02:29:10;;;;;;;8.87;4.37;;;17.00;99.90;;;;;;5015297;28;20496;-81
2022/05/23 02:31:37;;;;;;;4.97;3.87;;;16.90;99.90;;;;;;5014218;28;20462;-80
2022/05/23 02:34:05;;;;;;;6.57;5.07;;;16.90;99.90;;;;;;5015192;28;20473;-79
2022/05/23 02:36:33;;;;;;;5.70;3.80;;;17.00;99.90;;;;;;4995319;28;20883;-80
2022/05/23 02:39:00;;;;;;;5.80;4.40;;;17.00;99.90;;;;;;4995775;28;20450;-81
2022/05/23 02:41:27;;;;;;;8.00;4.10;;;17.10;99.90;;;;;;5013064;28;20484;-80
2022/05/23 02:43:54;;;;;;;7.57;4.73;;;17.10;99.90;;;;;;5014913;28;20478;-80
2022/05/23 02:46:20;;;;;;;8.63;4.03;;;17.00;99.90;;;;;;5014176;28;20495;-79
2022/05/23 02:48:47;;;;;;;8.70;4.17;;;17.00;99.90;;;;;;5014499;28;20492;-80
2022/05/23 02:51:14;;;;;;;8.20;4.20;;;17.10;99.90;;;;;;5011140;28;20457;-79
2022/05/23 02:53:42;;;;;;;7.20;4.00;;;17.10;99.90;;;;;;5014963;28;20826;-79
2022/05/23 02:56:09;;;;;;;7.63;4.07;;;17.10;99.90;;;;;;5014488;28;20493;-79
2022/05/23 02:58:36;;;;;;;9.20;3.83;;;17.10;99.90;;;;;;5012905;28;20488;-80
2022/05/23 03:01:03;;;;;;;5.30;3.90;;;17.10;99.90;;;;;;5008086;28;21042;-80
2022/05/23 03:03:28;;;;;;;6.00;4.07;;;17.10;99.90;;;;;;5013593;28;20476;-80
2022/05/23 03:05:56;;;;;;;6.27;3.70;;;17.10;99.90;;;;;;5024281;28;20914;-80
2022/05/23 03:08:25;;;;;;;4.30;2.90;;;17.20;99.90;;;;;;5026557;28;20224;-82
2022/05/23 03:11:00;;;;;;;4.93;3.73;;;17.20;99.90;;;;;;5030710;28;20473;-82
2022/05/23 03:13:27;;;;;;;7.03;3.97;;;17.30;99.90;;;;;;5031503;28;20470;-83
2022/05/23 03:15:54;;;;;;;5.43;3.73;;;17.30;99.90;;;;;;5031280;28;20462;-83
2022/05/23 03:18:21;;;;;;;6.10;4.23;;;17.30;99.90;;;;;;5033358;28;20455;-83
2022/05/23 03:20:48;;;;;;;8.00;4.20;;;17.20;99.90;;;;;;5027986;28;20544;-80
2022/05/23 03:28:45;;;;;;;6.20;4.00;;;17.20;99.90;;;;;;5019134;28;20865;-79
2022/05/23 03:31:12;;;;;;;7.80;4.00;;;17.20;99.90;;;;;;5018040;28;20457;-79
2022/05/23 03:33:38;;;;;;;5.30;3.40;;;17.10;99.90;;;;;;5019122;28;20503;-80
2022/05/23 03:36:08;;;;;;;5.77;4.57;;;17.10;99.90;;;;;;5017954;28;20545;-80
2022/05/23 03:38:35;;;;;;;5.93;4.10;;;17.10;99.90;;;;;;5017930;28;20461;-80
2022/05/23 03:41:07;;;;;;;6.40;4.20;;;17.10;99.90;;;;;;5017995;28;20468;-81
2022/05/23 03:43:34;;;;;;;6.57;4.13;;;17.10;99.90;;;;;;5016474;28;20473;-80
2022/05/23 03:46:05;;;;;;;5.80;3.50;;;17.10;99.90;;;;;;5017983;28;20464;-80
2022/05/23 03:48:32;;;;;;;5.27;3.80;;;17.00;99.90;;;;;;5017686;28;20507;-80
2022/05/23 03:50:59;;;;;;;4.93;4.10;;;17.10;99.90;;;;;;5017423;28;20460;-80
2022/05/23 03:53:26;;;;;;;6.93;3.97;;;17.10;99.90;;;;;;5017380;28;20844;-81
2022/05/23 03:55:53;;;;;;;5.43;3.63;;;17.10;99.90;;;;;;5017990;28;20456;-80
2022/05/23 03:58:22;;;;;;;5.27;3.90;;;17.10;99.90;;;;;;5018356;28;20496;-80
2022/05/23 04:00:49;;;;;;;6.60;3.80;;;17.10;99.90;;;;;;5018122;28;20463;-80
2022/05/23 04:03:17;;;;;;;7.53;4.50;;;17.10;99.90;;;;;;5002037;28;20468;-79
2022/05/23 04:05:44;;;;;;;5.43;3.90;;;17.10;99.90;;;;;;5017464;28;20521;-80
2022/05/23 04:08:11;;;;;;;5.23;3.80;;;17.10;99.90;;;;;;5018046;28;20956;-80
2022/05/23 04:10:39;;;;;;;4.80;3.73;;;17.10;99.90;;;;;;5017700;28;20456;-80
2022/05/23 04:13:06;;;;;;;7.80;4.17;;;17.10;99.90;;;;;;5018250;28;20858;-80
2022/05/23 04:15:35;;;;;;;4.77;4.10;;;17.10;99.90;;;;;;5018108;28;20463;-81
2022/05/23 04:18:02;;;;;;;7.73;4.23;;;17.10;99.90;;;;;;5017853;28;20464;-82
2022/05/23 04:20:29;;;;;;;4.60;3.47;;;17.10;99.90;;;;;;5016919;28;20461;-81
2022/05/23 04:22:56;;;;;;;6.30;4.03;;;17.10;99.90;;;;;;5017757;28;21013;-80
2022/05/23 04:25:22;;;;;;;7.57;4.00;;;17.10;99.90;;;;;;5018370;28;20481;-81
2022/05/23 04:27:49;;;;;;;5.07;3.97;;;17.10;99.90;;;;;;5018787;28;20456;-82
2022/05/23 04:30:16;;;;;;;5.33;4.30;;;17.10;99.90;;;;;;4992223;28;20584;-81
2022/05/23 04:35:29;;;;;;;4.50;3.87;;;17.20;99.90;;;;;;5015950;28;21007;-81
2022/05/23 04:37:56;;;;;;;5.20;3.80;;;17.20;99.90;;;;;;5014389;28;20457;-81
2022/05/23 04:40:25;;;;;;;4.77;4.03;;;17.20;99.90;;;;;;5015371;28;20445;-81
2022/05/23 04:42:52;;;;;;;5.30;4.17;;;17.30;99.90;;;;;;5014380;28;20557;-81
2022/05/23 04:45:20;;;;;;;10.93;4.90;;;17.30;99.90;;;;;;5015608;28;20458;-80
2022/05/23 04:50:33;;;;;;;5.90;3.90;;;17.50;99.90;;;;;;5008817;28;20530;-79
2022/05/23 04:53:01;;;;;;;7.60;3.93;;;17.50;99.90;;;;;;5006887;28;20470;-81
2022/05/23 04:55:29;;;;;;;6.70;4.20;;;17.60;99.90;;;;;;5017561;28;20500;-80
2022/05/23 04:57:58;;;;;;;10.33;4.73;;;17.60;99.90;;;;;;5017552;28;20464;-81
2022/05/23 05:00:25;;;;;;;4.80;3.77;;;17.70;99.90;;;;;;5016026;28;20461;-80
2022/05/23 05:02:54;;;;;;;8.47;3.73;;;17.70;99.90;;;;;;5017343;28;20846;-79
2022/05/23 05:05:22;;;;;;;8.93;4.10;;;17.80;99.90;;;;;;5016764;28;20510;-79
2022/05/23 05:07:49;;;;;;;7.93;5.30;;;17.80;99.90;;;;;;5013268;28;20455;-81
2022/05/23 05:10:16;;;;;;;5.60;3.73;;;17.90;99.90;;;;;;5010276;28;20498;-82
2022/05/23 05:12:43;;;;;;;5.27;4.67;;;17.90;99.90;;;;;;5013883;28;20540;-79
2022/05/23 05:15:10;;;;;;;7.73;4.30;;;17.90;99.90;;;;;;5020234;28;20468;-79
2022/05/23 05:17:37;;;;;;;8.23;4.30;;;18.00;99.90;;;;;;5021994;28;20463;-81
2022/05/23 05:20:08;;;;;;;6.87;4.30;;;18.10;99.90;;;;;;5018503;28;20459;-81
2022/05/23 05:22:35;;;;;;;7.60;4.13;;;18.20;99.90;;;;;;5020003;28;20498;-81
2022/05/23 05:25:03;;;;;;;11.10;4.00;;;18.30;99.90;;;;;;5022231;28;20469;-79
2022/05/23 05:27:29;;;;;;;5.37;4.27;;;18.50;99.90;;;;;;5021946;28;20454;-79
2022/05/23 05:29:56;;;;;;;7.50;4.87;;;18.60;99.90;;;;;;5020518;28;20549;-81
2022/05/23 05:32:33;;;;;;;5.80;4.23;;;18.70;99.90;;;;;;5019040;28;20574;-80
2022/05/23 05:35:07;;;;;;;7.03;4.40;;;18.70;99.90;;;;;;5017224;28;20470;-79
2022/05/23 05:37:43;;;;;;;7.20;4.20;;;18.80;99.90;;;;;;5019187;28;21036;-80
2022/05/23 05:40:13;;;;;;;5.50;3.83;;;18.80;99.90;;;;;;5018824;28;20439;-78
2022/05/23 05:42:44;;;;;;;5.53;4.00;;;18.90;99.90;;;;;;5017603;28;20847;-82
2022/05/23 05:45:15;;;;;;;8.80;4.77;;;18.90;99.90;;;;;;5020743;28;20455;-80
2022/05/23 05:47:44;;;;;;;4.23;3.77;;;19.00;99.90;;;;;;5021881;28;20457;-79
2022/05/23 05:50:18;;;;;;;7.03;3.73;;;19.00;99.90;;;;;;5015865;28;20496;-79
2022/05/23 05:52:45;;;;;;;5.73;3.57;;;19.10;99.90;;;;;;5017662;28;20476;-79
2022/05/23 05:55:13;;;;;;;6.27;4.13;;;19.20;99.90;;;;;;5016028;28;20871;-80
2022/05/23 05:57:41;;;;;;;5.47;3.00;;;19.30;99.90;;;;;;5017534;28;20489;-80
2022/05/23 06:00:09;;;;;;;6.60;4.27;;;19.50;99.90;;;;;;5021808;28;20460;-79
2022/05/23 06:02:36;;;;;;;7.23;4.27;;;19.60;99.90;;;;;;5020948;28;20484;-79
2022/05/23 06:05:04;;;;;;;7.13;4.03;;;19.80;99.90;;;;;;5028432;28;20449;-78
2022/05/23 06:13:04;;;;;;;7.73;3.83;;;20.20;99.90;;;;;;5031890;28;20448;-80
2022/05/23 06:15:30;;;;;;;8.20;3.57;;;20.20;99.90;;;;;;5031512;28;20458;-79
2022/05/23 06:17:57;;;;;;;5.00;3.17;;;20.30;99.90;;;;;;5034140;28;20448;-78
2022/05/23 06:20:27;;;;;;;5.53;3.33;;;20.30;99.90;;;;;;5029409;28;20500;-79
2022/05/23 06:22:56;;;;;;;5.77;3.60;;;20.30;99.90;;;;;;5029985;28;20507;-80
2022/05/23 06:25:23;;;;;;;5.00;3.07;;;20.20;99.90;;;;;;5016164;28;20498;-78
2022/05/23 06:27:52;;;;;;;4.53;2.53;;;20.20;99.90;;;;;;5027658;28;20545;-79
2022/05/23 06:30:22;;;;;;;4.70;3.13;;;20.30;99.90;;;;;;5020729;28;20500;-79
2022/05/23 06:32:49;;;;;;;6.03;3.73;;;20.50;99.90;;;;;;5012661;28;21004;-80
2022/05/23 06:35:17;;;;;;;7.33;3.13;;;20.50;99.90;;;;;;5016088;28;20458;-81
2022/05/23 06:37:44;;;;;;;5.43;2.73;;;20.70;99.90;;;;;;5013220;28;20454;-80
2022/05/23 06:40:15;;;;;;;6.93;3.00;;;20.80;99.90;;;;;;5015031;28;20871;-81
2022/05/23 06:42:42;;;;;;;4.97;2.80;;;20.80;99.90;;;;;;5013500;28;20473;-78
2022/05/23 06:45:10;;;;;;;7.40;3.40;;;20.90;99.90;;;;;;5015954;28;20453;-79
2022/05/23 06:47:37;;;;;;;5.30;2.63;;;21.00;99.90;;;;;;5017304;28;20900;-79
2022/05/23 06:50:04;;;;;;;7.40;3.00;;;21.20;99.90;;;;;;5014412;28;20571;-78
2022/05/23 06:52:31;;;;;;;4.83;3.00;;;21.20;99.90;;;;;;5015171;28;20997;-79
2022/05/23 06:54:58;;;;;;;5.60;3.13;;;21.30;99.90;;;;;;5022006;28;20443;-79
2022/05/23 06:57:26;;;;;;;5.63;2.73;;;21.50;99.90;;;;;;5013783;28;20481;-78
2022/05/23 06:59:53;;;;;;;11.53;3.07;;;21.70;99.90;;;;;;5015203;28;20905;-78
2022/05/23 07:02:20;;;;;;;4.50;2.83;;;21.80;99.90;;;;;;5008582;28;20478;-80
2022/05/23 07:13:00;;;;;;;5.00;2.73;;;22.20;99.90;;;;;;5023909;28;20452;-80
2022/05/23 07:15:35;;;;;;;8.40;3.03;;;22.30;99.90;;;;;;5021843;28;20459;-80
2022/05/23 07:18:03;;;;;;;4.53;2.60;;;22.30;99.90;;;;;;5016573;28;20480;-78
2022/05/23 07:20:30;;;;;;;7.97;2.87;;;22.40;99.90;;;;;;5011211;28;20484;-79
2022/05/23 07:22:56;;;;;;;4.50;2.33;;;22.40;99.90;;;;;;5015442;28;20473;-82
2022/05/23 07:25:23;;;;;;;5.67;2.27;;;22.30;99.90;;;;;;5017930;28;20453;-80
2022/05/23 07:27:50;;;;;;;5.23;2.33;;;22.50;99.90;;;;;;5016434;28;20458;-79
2022/05/23 07:30:21;;;;;;;6.97;2.53;;;22.60;99.90;;;;;;5016882;28;20481;-79
2022/05/23 07:32:48;;;;;;;4.60;2.50;;;22.70;99.90;;;;;;5008597;28;21156;-81
2022/05/23 07:35:14;;;;;;;4.10;2.50;;;22.90;99.90;;;;;;5012671;28;20468;-79
2022/05/23 07:37:41;;;;;;;5.43;2.13;;;23.00;99.90;;;;;;5012175;28;20448;-80
2022/05/23 07:40:09;;;;;;;5.27;2.40;;;23.10;99.90;;;;;;5015349;28;20468;-80
2022/05/23 07:42:37;;;;;;;5.43;2.20;;;23.20;99.90;;;;;;5013738;28;20481;-80
2022/05/23 07:45:04;;;;;;;6.00;2.30;;;23.40;99.90;;;;;;5014227;28;20457;-80
2022/05/23 07:47:32;;;;;;;3.53;2.03;;;23.40;99.90;;;;;;5016685;28;20468;-79
2022/05/23 07:49:59;;;;;;;5.30;2.37;;;23.40;99.90;;;;;;5016306;28;20856;-77
2022/05/23 07:52:26;;;;;;;5.50;2.40;;;23.50;99.90;;;;;;5013820;28;21016;-77
2022/05/23 08:00:32;;;;;;;4.60;2.30;;;23.30;99.90;;;;;;5006797;28;20425;-77
2022/05/23 08:03:02;;;;;;;3.03;2.10;;;23.30;99.90;;;;;;5003476;28;20505;-79
2022/05/23 08:05:28;;;;;;;3.70;2.40;;;23.20;99.90;;;;;;5009056;28;20465;-77
2022/05/23 08:07:55;;;;;;;5.83;2.20;;;23.20;99.90;;;;;;5014134;28;20462;-78
2022/05/23 08:10:22;;;;;;;6.70;2.10;;;23.30;99.90;;;;;;5013390;28;20489;-78
2022/05/23 08:12:52;;;;;;;3.93;2.27;;;23.50;99.90;;;;;;5014912;28;20477;-78
2022/05/23 08:15:19;;;;;;;4.57;2.00;;;23.60;99.90;;;;;;5016386;28;20482;-78
2022/05/23 08:17:47;;;;;;;3.60;2.00;;;23.90;99.90;;;;;;5010536;28;21101;-78
2022/05/23 08:20:15;;;;;;;6.83;2.30;;;24.10;99.90;;;;;;5007371;28;20462;-79
2022/05/23 08:22:42;;;;;;;4.37;2.07;;;24.20;99.90;;;;;;5010208;28;20849;-79
2022/05/23 08:25:09;;;;;;;4.33;2.40;;;24.30;99.90;;;;;;5011742;28;20537;-79
2022/05/23 08:27:36;;;;;;;4.87;2.23;;;24.30;99.90;;;;;;5014234;28;20945;-78
2022/05/23 08:30:04;;;;;;;6.47;1.97;;;24.40;99.90;;;;;;5012580;28;20581;-78
2022/05/23 08:32:31;;;;;;;4.27;2.03;;;24.30;99.90;;;;;;5013334;28;20557;-78
2022/05/23 08:34:58;;;;;;;5.33;2.73;;;24.40;99.90;;;;;;5015001;28;20470;-79
2022/05/23 08:37:27;;;;;;;4.00;2.67;;;24.50;99.90;;;;;;5015267;28;20458;-78
2022/05/23 08:39:55;;;;;;;2.90;1.77;;;24.50;99.90;;;;;;5015471;28;20453;-78
2022/05/23 08:42:30;;;;;;;4.70;2.00;;;24.60;99.90;;;;;;5014483;28;21075;-78
2022/05/23 08:45:19;;;;;;;5.90;2.43;;;24.70;99.90;;;;;;5015615;28;20461;-79
2022/05/23 08:48:01;;;;;;;3.83;1.83;;;24.90;99.90;;;;;;5016133;28;20560;-79
2022/05/23 08:50:37;;;;;;;7.43;2.23;;;25.10;99.90;;;;;;5015442;28;20927;-79
2022/05/23 08:53:13;;;;;;;3.23;2.00;;;25.10;99.90;;;;;;5010606;28;20512;-81
2022/05/23 08:55:43;;;;;;;4.57;1.77;;;25.20;99.90;;;;;;5014168;28;20525;-80
2022/05/23 08:58:15;;;;;;;3.70;2.03;;;25.10;99.90;;;;;;5012924;28;20454;-79
2022/05/23 09:00:43;;;;;;;3.73;2.23;;;25.40;99.90;;;;;;5011145;28;20883;-78
2022/05/23 09:03:17;;;;;;;4.57;2.33;;;25.90;99.90;;;;;;5013488;28;20497;-78
2022/05/23 09:05:50;;;;;;;4.47;2.17;;;26.10;99.90;;;;;;5013146;28;20966;-79
2022/05/23 09:08:23;;;;;;;6.53;2.10;;;26.30;99.90;;;;;;5011737;28;20467;-79
2022/05/23 09:10:55;;;;;;;3.20;1.87;;;26.40;99.90;;;;;;5012005;28;20580;-78
2022/05/23 09:13:27;;;;;;;4.17;2.27;;;26.80;99.90;;;;;;5013878;28;20473;-79
2022/05/23 09:15:59;;;;;;;4.17;2.20;;;27.00;99.90;;;;;;5004647;28;20470;-79
2022/05/23 09:18:36;;;;;;;3.40;1.77;;;27.50;99.90;;;;;;5012235;28;20472;-79
2022/05/23 09:21:05;;;;;;;3.47;1.80;;;27.70;99.90;;;;;;5011950;28;20454;-79
2022/05/23 09:23:37;;;;;;;5.73;2.10;;;28.10;99.90;;;;;;5012594;28;20485;-79
2022/05/23 09:26:11;;;;;;;3.60;1.73;;;28.30;99.90;;;;;;5007331;28;20451;-79
2022/05/23 09:28:39;;;;;;;3.73;2.03;;;28.10;99.90;;;;;;5011702;28;20907;-79
2022/05/23 09:31:15;;;;;;;4.70;1.87;;;28.20;99.90;;;;;;5011996;28;20496;-79
2022/05/23 09:33:46;;;;;;;4.30;2.00;;;28.20;99.90;;;;;;5012942;28;20860;-80
2022/05/23 09:36:19;;;;;;;5.07;2.23;;;28.60;99.90;;;;;;5014091;28;21046;-78
2022/05/23 09:38:55;;;;;;;3.93;2.10;;;28.90;99.90;;;;;;4999015;28;20540;-79
2022/05/23 09:49:57;;;;;;;6.60;2.30;;;30.40;99.90;;;;;;4999363;28;20954;-80
2022/05/23 09:52:29;;;;;;;3.03;1.70;;;31.10;99.90;;;;;;5014788;28;20481;-80
2022/05/23 09:55:01;;;;;;;3.50;1.97;;;31.10;99.90;;;;;;5014965;28;20489;-79
2022/05/23 09:57:36;;;;;;;3.90;2.57;;;31.60;99.90;;;;;;5010301;28;20444;-80
2022/05/23 10:00:06;;;;;;;3.57;1.90;;;31.80;99.90;;;;;;5013488;28;20564;-80
2022/05/23 10:02:36;;;;;;;3.20;1.93;;;32.20;99.90;;;;;;5012948;28;20577;-80
2022/05/23 10:05:05;;;;;;;2.90;1.63;;;32.30;99.90;;;;;;5014273;28;20450;-79
2022/05/23 10:07:37;;;;;;;2.90;1.70;;;32.20;99.90;;;;;;5012114;28;20473;-80
2022/05/23 10:10:09;;;;;;;3.83;2.20;;;32.40;99.90;;;;;;5012695;28;20477;-80
2022/05/23 10:12:37;;;;;;;3.17;1.90;;;33.00;99.90;;;;;;5013044;28;20486;-79
2022/05/23 10:15:12;;;;;;;4.00;1.80;;;33.30;96.80;;;;;;5014061;28;20457;-80
2022/05/23 10:17:41;;;;;;;3.53;1.63;;;33.80;94.40;;;;;;5014877;28;20949;-79
2022/05/23 10:20:28;;;;;;;6.10;2.00;;;34.10;98.40;;;;;;5013967;28;20461;-80
2022/05/23 10:23:01;;;;;;;2.67;1.43;;;34.50;98.30;;;;;;5000584;28;20477;-83
2022/05/23 10:25:36;;;;;;;3.50;1.50;;;35.20;97.20;;;;;;5014007;28;20976;-80
2022/05/23 10:28:08;;;;;;;4.93;1.90;;;36.20;90.00;;;;;;5009478;28;20457;-78
2022/05/23 10:30:36;;;;;;;6.63;1.87;;;35.90;84.80;;;;;;5012729;28;20493;-78
2022/05/23 10:33:09;;;;;;;3.30;1.73;;;35.40;83.30;;;;;;5011710;28;20532;-79
2022/05/23 10:35:41;;;;;;;3.90;2.00;;;34.80;79.00;;;;;;5007806;28;20457;-80
2022/05/23 10:43:56;;;;;;;4.57;1.90;;;35.50;76.30;;;;;;5001116;28;20473;-78
2022/05/23 10:46:24;;;;;;;4.20;1.30;;;35.80;74.50;;;;;;5013507;28;20592;-80
2022/05/23 10:49:01;;;;;;;6.03;2.13;;;36.90;78.20;;;;;;5010498;28;20453;-82
2022/05/23 10:51:35;;;;;;;4.00;1.90;;;36.70;74.20;;;;;;5011087;28;20538;-80
2022/05/23 10:54:20;;;;;;;6.27;1.73;;;36.60;79.50;;;;;;5018036;28;20469;-81
2022/05/23 10:57:04;;;;;;;5.50;2.50;;;36.00;99.90;;;;;;5021901;28;20951;-79
2022/05/23 10:59:39;;;;;;;5.10;2.13;;;35.50;99.90;;;;;;5016904;28;20453;-78
2022/05/23 11:02:19;;;;;;;5.70;1.80;;;34.90;99.90;;;;;;5031181;28;20451;-80
2022/05/23 11:04:53;;;;;;;5.07;1.80;;;34.60;99.90;;;;;;5021114;28;20448;-81
2022/05/23 11:07:39;;;;;;;6.80;1.93;;;35.10;99.90;;;;;;5015993;28;21052;-80
2022/05/23 11:10:22;;;;;;;3.77;1.63;;;34.60;99.90;;;;;;5024455;28;20457;-81
2022/05/23 11:13:00;;;;;;;3.70;1.60;;;35.80;99.90;;;;;;5020370;28;20552;-82
2022/05/23 11:15:42;;;;;;;6.53;2.20;;;36.80;99.90;;;;;;5019806;28;20452;-84
2022/05/23 11:18:15;;;;;;;3.07;1.47;;;37.40;99.90;;;;;;5019671;28;20510;-81
2022/05/23 11:20:44;;;;;;;3.13;1.40;;;38.30;99.90;;;;;;5018696;28;20472;-81
2022/05/23 11:23:25;;;;;;;2.50;1.37;;;38.40;99.90;;;;;;5013829;28;20855;-82
2022/05/23 11:25:57;;;;;;;4.10;1.47;;;38.70;99.90;;;;;;5020425;28;20948;-81
2022/05/23 11:34:10;;;;;;;3.07;1.47;;;39.30;99.90;;;;;;5006781;28;21023;-82
2022/05/23 11:36:56;;;;;;;5.73;1.77;;;39.30;99.90;;;;;;5010733;28;20459;-81
2022/05/23 11:39:43;;;;;;;5.90;1.80;;;38.80;99.90;;;;;;5018817;28;20468;-80
2022/05/23 11:42:12;;;;;;;3.27;1.70;;;38.70;99.90;;;;;;5015124;28;20448;-81
2022/05/23 11:45:56;;;;;;;4.53;1.70;;;38.40;99.90;;;;;;5008227;28;20466;-80
2022/05/23 11:47:51;;;;;;;3.27;1.30;;;37.70;99.90;;;;;;5006783;28;20451;-80
2022/05/23 11:50:23;;;;;;;3.43;1.60;;;37.50;99.90;;;;;;5007402;28;20461;-81
2022/05/23 11:53:03;;;;;;;3.33;1.77;;;37.10;99.90;;;;;;5010166;28;20476;-80
2022/05/23 11:56:01;;;;;;;2.93;1.63;;;37.10;99.90;;;;;;5013338;28;20449;-79
2022/05/23 11:58:49;;;;;;;5.83;1.67;;;38.10;99.90;;;;;;4986365;28;20458;-80
2022/05/23 12:01:27;;;;;;;3.50;1.93;;;38.00;99.90;;;;;;5006654;28;20446;-79
2022/05/23 12:04:23;;;;;;;5.40;1.90;;;39.10;99.90;;;;;;5009814;28;20887;-81
2022/05/23 12:06:50;;;;;;;7.10;2.00;;;39.80;99.90;;;;;;5009208;28;20465;-80
2022/05/23 12:09:41;;;;;;;4.07;1.93;;;40.30;99.90;;;;;;5016612;28;20564;-81
2022/05/23 12:12:34;;;;;;;4.67;2.00;;;40.50;99.90;;;;;;5018099;28;20497;-81
2022/05/23 12:15:01;;;;;;;3.57;1.97;;;40.40;99.90;;;;;;5008605;28;20454;-81
2022/05/23 12:17:32;;;;;;;2.63;1.70;;;40.10;99.90;;;;;;5019538;28;20477;-80
2022/05/23 12:20:02;;;;;;;2.50;1.60;;;39.70;99.90;;;;;;5006508;28;20445;-80
2022/05/23 12:22:32;;;;;;;3.90;1.80;;;40.00;99.90;;;;;;5018827;28;20531;-80
2022/05/23 12:25:20;;;;;;;3.70;1.60;;;39.30;99.90;;;;;;5023598;28;20480;-80
2022/05/23 12:28:21;;;;;;;4.33;1.70;;;39.40;99.90;;;;;;5012133;28;20453;-81
2022/05/23 12:31:10;;;;;;;3.60;1.40;;;40.60;99.90;;;;;;4958715;28;20511;-80
2022/05/23 12:33:42;;;;;;;4.10;1.90;;;41.80;99.90;;;;;;5008055;28;20477;-80
2022/05/23 12:36:12;;;;;;;4.00;2.40;;;42.50;99.90;;;;;;5009468;28;20466;-79
2022/05/23 12:38:54;;;;;;;5.70;1.97;;;42.20;99.90;;;;;;5009982;28;20481;-77
2022/05/23 12:41:46;;;;;;;4.23;2.10;;;41.40;99.90;;;;;;5009417;28;21272;-79
2022/05/23 12:44:49;;;;;;;4.17;1.90;;;40.90;99.90;;;;;;5013604;28;20835;-81
2022/05/23 12:47:27;;;;;;;2.60;1.40;;;41.00;99.90;;;;;;5018987;28;21092;-80
2022/05/23 12:50:06;;;;;;;4.67;1.97;;;40.10;99.90;;;;;;5014570;28;21152;-80
2022/05/23 12:52:55;;;;;;;6.87;1.90;;;39.00;99.90;;;;;;5017745;28;20879;-80
2022/05/23 12:55:40;;;;;;;6.20;2.40;;;37.60;99.90;;;;;;5012070;28;20461;-82
2022/05/23 12:58:28;;;;;;;3.50;1.90;;;35.80;99.90;;;;;;5012131;28;20449;-79
2022/05/23 13:00:59;;;;;;;4.67;2.00;;;34.70;99.90;;;;;;5014129;28;20456;-79
2022/05/23 13:03:33;;;;;;;4.43;1.97;;;34.40;99.90;;;;;;5013329;28;20465;-79
2022/05/23 13:06:08;;;;;;;5.03;1.93;;;33.90;99.90;;;;;;5016397;28;20445;-80
2022/05/23 13:08:44;;;;;;;2.83;1.90;;;33.00;99.90;;;;;;5019454;28;20492;-81
2022/05/23 13:11:17;;;;;;;3.10;1.80;;;32.60;99.90;;;;;;5018615;28;20495;-80
2022/05/23 13:13:46;;;;;;;4.07;2.40;;;31.90;99.90;;;;;;5019352;28;20536;-79
2022/05/23 13:16:20;;;;;;;4.17;1.90;;;31.50;99.90;;;;;;5018619;28;20473;-79
2022/05/23 13:27:00;;;;;;;5.13;2.50;;;29.20;99.90;;;;;;5018286;28;20953;-79
2022/05/23 13:29:27;;;;;;;3.80;2.20;;;28.80;99.90;;;;;;5018611;28;20453;-78
2022/05/23 13:31:59;;;;;;;5.57;1.90;;;28.40;99.90;;;;;;5018857;28;20573;-79
2022/05/23 13:34:31;;;;;;;3.23;1.83;;;27.90;99.90;;;;;;5018481;28;20529;-80
2022/05/23 13:37:00;;;;;;;7.07;2.20;;;27.30;99.90;;;;;;5018840;28;20453;-79
2022/05/23 13:39:28;;;;;;;5.60;2.00;;;27.20;99.90;;;;;;5017324;28;20544;-78
2022/05/23 13:41:56;;;;;;;3.63;2.37;;;27.00;99.90;;;;;;5016626;28;20454;-78
2022/05/23 13:44:26;;;;;;;4.63;3.10;;;26.80;99.90;;;;;;5017507;28;20457;-80
2022/05/23 13:46:58;;;;;;;5.13;2.77;;;26.70;99.90;;;;;;5017900;28;20453;-79
2022/05/23 13:49:29;;;;;;;4.00;2.20;;;26.60;99.90;;;;;;5016983;28;20461;-80
2022/05/23 13:51:59;;;;;;;4.70;2.30;;;26.60;99.90;;;;;;5016579;28;20481;-79
2022/05/23 13:54:34;;;;;;;4.50;3.10;;;26.40;99.90;;;;;;5017195;28;20464;-79
2022/05/23 13:57:08;;;;;;;5.60;3.57;;;26.20;99.90;;;;;;5017348;28;20449;-79
2022/05/23 13:59:40;;;;;;;4.73;2.53;;;26.00;99.90;;;;;;5013284;28;20453;-79
2022/05/23 14:02:12;;;;;;;3.67;2.47;;;26.00;99.90;;;;;;5016416;28;20557;-79
2022/05/23 14:04:41;;;;;;;3.60;2.20;;;26.00;99.90;;;;;;5010683;28;20464;-79
2022/05/23 14:07:11;;;;;;;4.83;2.93;;;25.80;1.00;;;;;;5018940;28;20544;-78
2022/05/23 14:09:43;;;;;;;3.80;2.80;;;25.80;99.90;;;;;;5016311;28;20954;-79
2022/05/23 14:12:13;;;;;;;5.93;2.70;;;25.60;99.90;;;;;;5007915;28;20492;-78
2022/05/23 14:14:43;;;;;;;4.53;2.73;;;25.30;99.90;;;;;;5007610;28;20454;-78